sensor_id;sensor_type;location;lat;lon;timestamp;P1;durP1;ratioP1;P2;durP2;ratioP2
15938;SDS011;8068;51.322;9.450;2023-06-22T00:02:22;16.60;;;15.00;;
15938;SDS011;8068;51.322;9.450;2023-06-22T00:04:48;23.67;;;14.50;;
15938;SDS011;8068;51.322;9.450;2023-06-22T00:07:14;16.10;;;14.60;;
15938;SDS011;8068;51.322;9.450;2023-06-22T00:09:41;15.90;;;14.03;;
15938;SDS011;8068;51.322;9.450;2023-06-22T00:12:07;14.77;;;13.47;;
15938;SDS011;8068;51.322;9.450;2023-06-22T00:14:33;14.60;;;13.40;;
15938;SDS011;8068;51.322;9.450;2023-06-22T00:17:00;13.33;;;12.37;;
15938;SDS011;8068;51.322;9.450;2023-06-22T00:19:26;16.00;;;12.77;;
15938;SDS011;8068;51.322;9.450;2023-06-22T00:21:52;17.40;;;14.20;;
15938;SDS011;8068;51.322;9.450;2023-06-22T00:24:21;15.53;;;14.03;;
15938;SDS011;8068;51.322;9.450;2023-06-22T00:26:48;13.47;;;12.30;;
15938;SDS011;8068;51.322;9.450;2023-06-22T00:29:14;14.37;;;12.90;;
15938;SDS011;8068;51.322;9.450;2023-06-22T00:31:41;14.13;;;12.97;;
15938;SDS011;8068;51.322;9.450;2023-06-22T00:34:07;13.73;;;11.87;;
15938;SDS011;8068;51.322;9.450;2023-06-22T00:36:37;14.73;;;13.23;;
15938;SDS011;8068;51.322;9.450;2023-06-22T00:39:06;12.83;;;11.73;;
15938;SDS011;8068;51.322;9.450;2023-06-22T00:41:33;14.83;;;13.70;;
15938;SDS011;8068;51.322;9.450;2023-06-22T00:44:00;14.93;;;13.83;;
15938;SDS011;8068;51.322;9.450;2023-06-22T00:46:26;13.70;;;12.57;;
15938;SDS011;8068;51.322;9.450;2023-06-22T00:48:52;14.53;;;13.10;;
15938;SDS011;8068;51.322;9.450;2023-06-22T00:51:18;15.80;;;14.20;;
15938;SDS011;8068;51.322;9.450;2023-06-22T00:53:50;15.50;;;14.10;;
15938;SDS011;8068;51.322;9.450;2023-06-22T00:56:17;16.60;;;15.10;;
15938;SDS011;8068;51.322;9.450;2023-06-22T00:58:46;20.50;;;14.87;;
15938;SDS011;8068;51.322;9.450;2023-06-22T01:01:13;17.70;;;15.87;;
15938;SDS011;8068;51.322;9.450;2023-06-22T01:03:40;20.13;;;14.00;;
15938;SDS011;8068;51.322;9.450;2023-06-22T01:06:10;14.80;;;13.33;;
15938;SDS011;8068;51.322;9.450;2023-06-22T01:11:20;15.63;;;14.20;;
15938;SDS011;8068;51.322;9.450;2023-06-22T01:13:59;14.93;;;13.80;;
15938;SDS011;8068;51.322;9.450;2023-06-22T01:16:35;17.73;;;15.00;;
15938;SDS011;8068;51.322;9.450;2023-06-22T01:19:15;16.33;;;12.70;;
15938;SDS011;8068;51.322;9.450;2023-06-22T01:21:53;15.13;;;12.97;;
15938;SDS011;8068;51.322;9.450;2023-06-22T01:24:30;13.70;;;12.17;;
15938;SDS011;8068;51.322;9.450;2023-06-22T01:29:36;12.77;;;11.53;;
15938;SDS011;8068;51.322;9.450;2023-06-22T01:32:04;14.10;;;12.80;;
15938;SDS011;8068;51.322;9.450;2023-06-22T01:34:34;19.53;;;14.50;;
15938;SDS011;8068;51.322;9.450;2023-06-22T01:37:01;16.20;;;12.97;;
15938;SDS011;8068;51.322;9.450;2023-06-22T01:39:28;12.50;;;11.50;;
15938;SDS011;8068;51.322;9.450;2023-06-22T01:41:55;12.87;;;11.80;;
15938;SDS011;8068;51.322;9.450;2023-06-22T01:44:21;15.53;;;13.97;;
15938;SDS011;8068;51.322;9.450;2023-06-22T01:46:48;13.30;;;12.20;;
15938;SDS011;8068;51.322;9.450;2023-06-22T01:49:16;14.33;;;12.90;;
15938;SDS011;8068;51.322;9.450;2023-06-22T01:51:42;12.93;;;12.03;;
15938;SDS011;8068;51.322;9.450;2023-06-22T01:54:08;14.23;;;12.00;;
15938;SDS011;8068;51.322;9.450;2023-06-22T01:56:35;13.97;;;12.67;;
15938;SDS011;8068;51.322;9.450;2023-06-22T02:01:35;14.90;;;13.40;;
15938;SDS011;8068;51.322;9.450;2023-06-22T02:04:11;15.17;;;13.70;;
15938;SDS011;8068;51.322;9.450;2023-06-22T02:06:41;15.10;;;13.80;;
15938;SDS011;8068;51.322;9.450;2023-06-22T02:09:09;14.27;;;13.07;;
15938;SDS011;8068;51.322;9.450;2023-06-22T02:11:38;16.27;;;14.77;;
15938;SDS011;8068;51.322;9.450;2023-06-22T02:14:06;22.33;;;13.20;;
15938;SDS011;8068;51.322;9.450;2023-06-22T02:16:33;16.27;;;14.67;;
15938;SDS011;8068;51.322;9.450;2023-06-22T02:19:01;17.80;;;14.60;;
15938;SDS011;8068;51.322;9.450;2023-06-22T02:21:32;15.50;;;14.13;;
15938;SDS011;8068;51.322;9.450;2023-06-22T02:23:58;16.03;;;13.43;;
15938;SDS011;8068;51.322;9.450;2023-06-22T02:26:24;13.30;;;12.03;;
15938;SDS011;8068;51.322;9.450;2023-06-22T02:28:51;15.80;;;14.13;;
15938;SDS011;8068;51.322;9.450;2023-06-22T02:31:18;15.67;;;14.27;;
15938;SDS011;8068;51.322;9.450;2023-06-22T02:33:45;12.90;;;11.90;;
15938;SDS011;8068;51.322;9.450;2023-06-22T02:36:12;16.93;;;14.20;;
15938;SDS011;8068;51.322;9.450;2023-06-22T02:38:42;15.33;;;13.97;;
15938;SDS011;8068;51.322;9.450;2023-06-22T02:41:14;15.10;;;13.77;;
15938;SDS011;8068;51.322;9.450;2023-06-22T02:43:44;16.83;;;13.20;;
15938;SDS011;8068;51.322;9.450;2023-06-22T02:46:11;18.87;;;14.83;;
15938;SDS011;8068;51.322;9.450;2023-06-22T02:48:42;15.40;;;13.90;;
15938;SDS011;8068;51.322;9.450;2023-06-22T02:51:11;14.50;;;12.70;;
15938;SDS011;8068;51.322;9.450;2023-06-22T02:53:37;14.07;;;12.23;;
15938;SDS011;8068;51.322;9.450;2023-06-22T02:56:03;14.40;;;12.20;;
15938;SDS011;8068;51.322;9.450;2023-06-22T02:58:31;15.17;;;13.73;;
15938;SDS011;8068;51.322;9.450;2023-06-22T03:01:04;13.90;;;12.70;;
15938;SDS011;8068;51.322;9.450;2023-06-22T03:03:31;17.63;;;13.57;;
15938;SDS011;8068;51.322;9.450;2023-06-22T03:05:57;13.10;;;11.47;;
15938;SDS011;8068;51.322;9.450;2023-06-22T03:08:24;14.20;;;13.00;;
15938;SDS011;8068;51.322;9.450;2023-06-22T03:10:50;14.30;;;12.67;;
15938;SDS011;8068;51.322;9.450;2023-06-22T03:13:16;13.40;;;12.03;;
15938;SDS011;8068;51.322;9.450;2023-06-22T03:15:42;16.37;;;14.77;;
15938;SDS011;8068;51.322;9.450;2023-06-22T03:18:08;14.30;;;12.60;;
15938;SDS011;8068;51.322;9.450;2023-06-22T03:20:35;14.43;;;13.23;;
15938;SDS011;8068;51.322;9.450;2023-06-22T03:23:01;23.50;;;14.90;;
15938;SDS011;8068;51.322;9.450;2023-06-22T03:25:27;13.00;;;12.00;;
15938;SDS011;8068;51.322;9.450;2023-06-22T03:27:53;14.07;;;12.73;;
15938;SDS011;8068;51.322;9.450;2023-06-22T03:30:20;17.87;;;12.80;;
15938;SDS011;8068;51.322;9.450;2023-06-22T03:32:46;13.37;;;12.07;;
15938;SDS011;8068;51.322;9.450;2023-06-22T03:35:12;17.07;;;12.90;;
15938;SDS011;8068;51.322;9.450;2023-06-22T03:37:39;14.43;;;13.13;;
15938;SDS011;8068;51.322;9.450;2023-06-22T03:40:06;14.13;;;12.83;;
15938;SDS011;8068;51.322;9.450;2023-06-22T03:42:33;17.53;;;15.17;;
15938;SDS011;8068;51.322;9.450;2023-06-22T03:45:01;15.67;;;14.17;;
15938;SDS011;8068;51.322;9.450;2023-06-22T03:47:29;15.13;;;13.63;;
15938;SDS011;8068;51.322;9.450;2023-06-22T03:49:55;16.03;;;14.53;;
15938;SDS011;8068;51.322;9.450;2023-06-22T03:52:22;32.70;;;22.90;;
15938;SDS011;8068;51.322;9.450;2023-06-22T03:54:48;24.50;;;16.40;;
15938;SDS011;8068;51.322;9.450;2023-06-22T03:57:14;24.43;;;17.03;;
15938;SDS011;8068;51.322;9.450;2023-06-22T03:59:40;17.03;;;15.07;;
15938;SDS011;8068;51.322;9.450;2023-06-22T04:02:07;18.40;;;16.37;;
15938;SDS011;8068;51.322;9.450;2023-06-22T04:04:48;16.93;;;14.47;;
15938;SDS011;8068;51.322;9.450;2023-06-22T04:07:14;16.37;;;14.87;;
15938;SDS011;8068;51.322;9.450;2023-06-22T04:09:40;15.40;;;13.90;;
15938;SDS011;8068;51.322;9.450;2023-06-22T04:12:07;15.13;;;13.37;;
15938;SDS011;8068;51.322;9.450;2023-06-22T04:14:33;13.80;;;12.53;;
15938;SDS011;8068;51.322;9.450;2023-06-22T04:16:59;16.30;;;14.90;;
15938;SDS011;8068;51.322;9.450;2023-06-22T04:19:25;20.63;;;14.43;;
15938;SDS011;8068;51.322;9.450;2023-06-22T04:21:52;15.30;;;13.87;;
15938;SDS011;8068;51.322;9.450;2023-06-22T04:24:18;14.47;;;13.13;;
15938;SDS011;8068;51.322;9.450;2023-06-22T04:26:44;14.47;;;13.27;;
15938;SDS011;8068;51.322;9.450;2023-06-22T04:29:12;20.50;;;13.10;;
15938;SDS011;8068;51.322;9.450;2023-06-22T04:31:39;13.20;;;12.10;;
15938;SDS011;8068;51.322;9.450;2023-06-22T04:34:06;15.27;;;11.73;;
15938;SDS011;8068;51.322;9.450;2023-06-22T04:36:36;13.20;;;12.20;;
15938;SDS011;8068;51.322;9.450;2023-06-22T04:39:04;14.87;;;13.67;;
15938;SDS011;8068;51.322;9.450;2023-06-22T04:41:32;13.40;;;12.13;;
15938;SDS011;8068;51.322;9.450;2023-06-22T04:44:08;12.83;;;11.57;;
15938;SDS011;8068;51.322;9.450;2023-06-22T04:46:50;12.70;;;11.40;;
15938;SDS011;8068;51.322;9.450;2023-06-22T04:49:20;12.73;;;11.53;;
15938;SDS011;8068;51.322;9.450;2023-06-22T04:51:47;11.93;;;11.03;;
15938;SDS011;8068;51.322;9.450;2023-06-22T04:54:14;11.23;;;10.23;;
15938;SDS011;8068;51.322;9.450;2023-06-22T04:56:40;12.07;;;11.03;;
15938;SDS011;8068;51.322;9.450;2023-06-22T04:59:07;14.30;;;11.30;;
15938;SDS011;8068;51.322;9.450;2023-06-22T05:01:33;11.40;;;10.40;;
15938;SDS011;8068;51.322;9.450;2023-06-22T05:04:00;13.93;;;11.70;;
15938;SDS011;8068;51.322;9.450;2023-06-22T05:06:28;11.23;;;10.10;;
15938;SDS011;8068;51.322;9.450;2023-06-22T05:08:55;13.63;;;11.17;;
15938;SDS011;8068;51.322;9.450;2023-06-22T05:11:28;12.17;;;11.03;;
15938;SDS011;8068;51.322;9.450;2023-06-22T05:13:54;12.80;;;11.40;;
15938;SDS011;8068;51.322;9.450;2023-06-22T05:16:22;12.77;;;11.67;;
15938;SDS011;8068;51.322;9.450;2023-06-22T05:18:53;13.70;;;12.30;;
15938;SDS011;8068;51.322;9.450;2023-06-22T05:21:24;13.80;;;12.53;;
15938;SDS011;8068;51.322;9.450;2023-06-22T05:23:51;13.93;;;12.00;;
15938;SDS011;8068;51.322;9.450;2023-06-22T05:26:18;12.00;;;10.80;;
15938;SDS011;8068;51.322;9.450;2023-06-22T05:28:45;13.00;;;11.93;;
15938;SDS011;8068;51.322;9.450;2023-06-22T05:31:16;14.10;;;11.80;;
15938;SDS011;8068;51.322;9.450;2023-06-22T05:33:43;12.80;;;11.70;;
15938;SDS011;8068;51.322;9.450;2023-06-22T05:36:10;12.13;;;11.13;;
15938;SDS011;8068;51.322;9.450;2023-06-22T05:38:36;12.30;;;11.17;;
15938;SDS011;8068;51.322;9.450;2023-06-22T05:41:03;11.23;;;10.23;;
15938;SDS011;8068;51.322;9.450;2023-06-22T05:43:29;11.10;;;10.30;;
15938;SDS011;8068;51.322;9.450;2023-06-22T05:45:55;12.30;;;11.20;;
15938;SDS011;8068;51.322;9.450;2023-06-22T05:48:21;13.63;;;10.33;;
15938;SDS011;8068;51.322;9.450;2023-06-22T05:50:48;10.63;;;9.73;;
15938;SDS011;8068;51.322;9.450;2023-06-22T05:53:14;11.60;;;9.77;;
15938;SDS011;8068;51.322;9.450;2023-06-22T05:55:40;11.50;;;10.63;;
15938;SDS011;8068;51.322;9.450;2023-06-22T05:58:06;11.43;;;10.20;;
15938;SDS011;8068;51.322;9.450;2023-06-22T06:00:33;11.87;;;10.70;;
15938;SDS011;8068;51.322;9.450;2023-06-22T06:03:00;11.20;;;10.40;;
15938;SDS011;8068;51.322;9.450;2023-06-22T06:05:29;12.53;;;11.53;;
15938;SDS011;8068;51.322;9.450;2023-06-22T06:07:56;10.97;;;10.07;;
15938;SDS011;8068;51.322;9.450;2023-06-22T06:10:22;14.27;;;11.90;;
15938;SDS011;8068;51.322;9.450;2023-06-22T06:12:48;12.63;;;11.53;;
15938;SDS011;8068;51.322;9.450;2023-06-22T06:15:15;11.10;;;10.10;;
15938;SDS011;8068;51.322;9.450;2023-06-22T06:17:53;10.63;;;9.60;;
15938;SDS011;8068;51.322;9.450;2023-06-22T06:20:21;11.67;;;10.40;;
15938;SDS011;8068;51.322;9.450;2023-06-22T06:22:49;11.47;;;10.40;;
15938;SDS011;8068;51.322;9.450;2023-06-22T06:25:15;11.70;;;10.80;;
15938;SDS011;8068;51.322;9.450;2023-06-22T06:27:43;11.43;;;10.53;;
15938;SDS011;8068;51.322;9.450;2023-06-22T06:30:10;11.87;;;10.63;;
15938;SDS011;8068;51.322;9.450;2023-06-22T06:32:37;10.47;;;9.77;;
15938;SDS011;8068;51.322;9.450;2023-06-22T06:35:05;11.60;;;10.50;;
15938;SDS011;8068;51.322;9.450;2023-06-22T06:37:33;11.10;;;9.60;;
15938;SDS011;8068;51.322;9.450;2023-06-22T06:40:03;10.07;;;9.27;;
15938;SDS011;8068;51.322;9.450;2023-06-22T06:42:31;8.80;;;8.30;;
15938;SDS011;8068;51.322;9.450;2023-06-22T06:44:57;10.47;;;9.30;;
15938;SDS011;8068;51.322;9.450;2023-06-22T06:47:23;12.77;;;10.07;;
15938;SDS011;8068;51.322;9.450;2023-06-22T06:49:50;9.53;;;8.93;;
15938;SDS011;8068;51.322;9.450;2023-06-22T06:52:16;11.33;;;10.13;;
15938;SDS011;8068;51.322;9.450;2023-06-22T06:54:42;10.70;;;9.20;;
15938;SDS011;8068;51.322;9.450;2023-06-22T06:57:08;11.80;;;10.40;;
15938;SDS011;8068;51.322;9.450;2023-06-22T06:59:36;9.20;;;8.37;;
15938;SDS011;8068;51.322;9.450;2023-06-22T07:02:02;8.60;;;8.10;;
15938;SDS011;8068;51.322;9.450;2023-06-22T07:04:29;8.63;;;8.03;;
15938;SDS011;8068;51.322;9.450;2023-06-22T07:06:55;12.07;;;8.80;;
15938;SDS011;8068;51.322;9.450;2023-06-22T07:09:21;10.93;;;9.97;;
15938;SDS011;8068;51.322;9.450;2023-06-22T07:11:47;10.17;;;9.33;;
15938;SDS011;8068;51.322;9.450;2023-06-22T07:14:13;10.53;;;9.63;;
15938;SDS011;8068;51.322;9.450;2023-06-22T07:16:40;10.27;;;9.40;;
15938;SDS011;8068;51.322;9.450;2023-06-22T07:19:07;11.30;;;10.30;;
15938;SDS011;8068;51.322;9.450;2023-06-22T07:21:35;10.37;;;9.57;;
15938;SDS011;8068;51.322;9.450;2023-06-22T07:24:02;13.90;;;8.80;;
15938;SDS011;8068;51.322;9.450;2023-06-22T07:26:28;10.17;;;9.33;;
15938;SDS011;8068;51.322;9.450;2023-06-22T07:28:54;14.10;;;9.37;;
15938;SDS011;8068;51.322;9.450;2023-06-22T07:31:20;9.80;;;8.90;;
15938;SDS011;8068;51.322;9.450;2023-06-22T07:33:47;11.00;;;10.10;;
15938;SDS011;8068;51.322;9.450;2023-06-22T07:36:14;10.40;;;9.37;;
15938;SDS011;8068;51.322;9.450;2023-06-22T07:38:40;10.47;;;9.50;;
15938;SDS011;8068;51.322;9.450;2023-06-22T07:41:06;9.10;;;8.40;;
15938;SDS011;8068;51.322;9.450;2023-06-22T07:43:32;9.60;;;8.90;;
15938;SDS011;8068;51.322;9.450;2023-06-22T07:46:00;8.80;;;8.00;;
15938;SDS011;8068;51.322;9.450;2023-06-22T07:48:26;10.00;;;8.50;;
15938;SDS011;8068;51.322;9.450;2023-06-22T07:50:52;9.93;;;9.27;;
15938;SDS011;8068;51.322;9.450;2023-06-22T07:53:19;9.23;;;8.63;;
15938;SDS011;8068;51.322;9.450;2023-06-22T07:55:46;8.90;;;8.30;;
15938;SDS011;8068;51.322;9.450;2023-06-22T07:58:15;9.07;;;8.37;;
15938;SDS011;8068;51.322;9.450;2023-06-22T08:00:44;11.33;;;8.83;;
15938;SDS011;8068;51.322;9.450;2023-06-22T08:03:10;9.37;;;8.57;;
15938;SDS011;8068;51.322;9.450;2023-06-22T08:05:37;8.33;;;7.73;;
15938;SDS011;8068;51.322;9.450;2023-06-22T08:08:03;10.13;;;8.57;;
15938;SDS011;8068;51.322;9.450;2023-06-22T08:10:30;9.47;;;8.87;;
15938;SDS011;8068;51.322;9.450;2023-06-22T08:12:56;9.23;;;8.50;;
15938;SDS011;8068;51.322;9.450;2023-06-22T08:15:22;8.60;;;8.10;;
15938;SDS011;8068;51.322;9.450;2023-06-22T08:17:48;10.03;;;9.10;;
15938;SDS011;8068;51.322;9.450;2023-06-22T08:20:15;8.23;;;7.73;;
15938;SDS011;8068;51.322;9.450;2023-06-22T08:22:41;8.87;;;8.13;;
15938;SDS011;8068;51.322;9.450;2023-06-22T08:25:08;9.60;;;8.60;;
15938;SDS011;8068;51.322;9.450;2023-06-22T08:27:35;8.90;;;8.20;;
15938;SDS011;8068;51.322;9.450;2023-06-22T08:30:02;8.50;;;7.70;;
15938;SDS011;8068;51.322;9.450;2023-06-22T08:32:29;9.50;;;8.77;;
15938;SDS011;8068;51.322;9.450;2023-06-22T08:34:56;9.10;;;8.40;;
15938;SDS011;8068;51.322;9.450;2023-06-22T08:37:23;8.47;;;7.77;;
15938;SDS011;8068;51.322;9.450;2023-06-22T08:39:50;9.67;;;8.77;;
15938;SDS011;8068;51.322;9.450;2023-06-22T08:42:17;8.90;;;8.30;;
15938;SDS011;8068;51.322;9.450;2023-06-22T08:44:43;9.60;;;8.73;;
15938;SDS011;8068;51.322;9.450;2023-06-22T08:47:15;8.67;;;8.10;;
15938;SDS011;8068;51.322;9.450;2023-06-22T08:49:46;10.20;;;9.47;;
15938;SDS011;8068;51.322;9.450;2023-06-22T08:52:18;9.80;;;8.23;;
15938;SDS011;8068;51.322;9.450;2023-06-22T08:54:52;8.30;;;7.60;;
15938;SDS011;8068;51.322;9.450;2023-06-22T08:57:24;9.87;;;9.07;;
15938;SDS011;8068;51.322;9.450;2023-06-22T08:59:56;8.97;;;8.37;;
15938;SDS011;8068;51.322;9.450;2023-06-22T09:02:32;9.50;;;8.40;;
15938;SDS011;8068;51.322;9.450;2023-06-22T09:05:04;9.50;;;8.70;;
15938;SDS011;8068;51.322;9.450;2023-06-22T09:07:36;8.53;;;7.97;;
15938;SDS011;8068;51.322;9.450;2023-06-22T09:10:12;9.70;;;8.90;;
15938;SDS011;8068;51.322;9.450;2023-06-22T09:12:43;9.03;;;8.27;;
15938;SDS011;8068;51.322;9.450;2023-06-22T09:15:15;9.00;;;8.20;;
15938;SDS011;8068;51.322;9.450;2023-06-22T09:17:53;9.13;;;8.20;;
15938;SDS011;8068;51.322;9.450;2023-06-22T09:20:25;10.17;;;9.23;;
15938;SDS011;8068;51.322;9.450;2023-06-22T09:22:57;10.10;;;9.20;;
15938;SDS011;8068;51.322;9.450;2023-06-22T09:25:29;10.10;;;9.30;;
15938;SDS011;8068;51.322;9.450;2023-06-22T09:28:02;9.67;;;8.77;;
15938;SDS011;8068;51.322;9.450;2023-06-22T09:30:33;10.03;;;9.03;;
15938;SDS011;8068;51.322;9.450;2023-06-22T09:33:05;11.23;;;10.13;;
15938;SDS011;8068;51.322;9.450;2023-06-22T09:35:37;8.97;;;8.37;;
15938;SDS011;8068;51.322;9.450;2023-06-22T09:38:08;9.07;;;8.47;;
15938;SDS011;8068;51.322;9.450;2023-06-22T09:40:39;9.60;;;8.60;;
15938;SDS011;8068;51.322;9.450;2023-06-22T09:43:15;9.87;;;9.07;;
15938;SDS011;8068;51.322;9.450;2023-06-22T09:45:48;8.67;;;8.10;;
15938;SDS011;8068;51.322;9.450;2023-06-22T09:48:20;9.40;;;8.70;;
15938;SDS011;8068;51.322;9.450;2023-06-22T09:50:56;8.83;;;8.03;;
15938;SDS011;8068;51.322;9.450;2023-06-22T09:53:27;9.27;;;8.67;;
15938;SDS011;8068;51.322;9.450;2023-06-22T09:56:00;9.30;;;8.40;;
15938;SDS011;8068;51.322;9.450;2023-06-22T09:58:37;9.17;;;8.67;;
15938;SDS011;8068;51.322;9.450;2023-06-22T10:01:09;10.37;;;9.67;;
15938;SDS011;8068;51.322;9.450;2023-06-22T10:03:42;8.97;;;8.27;;
15938;SDS011;8068;51.322;9.450;2023-06-22T10:06:15;8.73;;;8.03;;
15938;SDS011;8068;51.322;9.450;2023-06-22T10:08:46;9.50;;;8.83;;
15938;SDS011;8068;51.322;9.450;2023-06-22T10:11:17;9.33;;;8.33;;
15938;SDS011;8068;51.322;9.450;2023-06-22T10:13:48;9.97;;;9.17;;
15938;SDS011;8068;51.322;9.450;2023-06-22T10:16:19;10.03;;;9.03;;
15938;SDS011;8068;51.322;9.450;2023-06-22T10:18:50;9.27;;;8.67;;
15938;SDS011;8068;51.322;9.450;2023-06-22T10:21:21;8.23;;;7.70;;
15938;SDS011;8068;51.322;9.450;2023-06-22T10:23:55;8.90;;;8.23;;
15938;SDS011;8068;51.322;9.450;2023-06-22T10:26:26;9.27;;;8.37;;
15938;SDS011;8068;51.322;9.450;2023-06-22T10:28:58;9.67;;;8.97;;
15938;SDS011;8068;51.322;9.450;2023-06-22T10:31:46;9.93;;;8.77;;
15938;SDS011;8068;51.322;9.450;2023-06-22T10:34:13;9.20;;;8.60;;
15938;SDS011;8068;51.322;9.450;2023-06-22T10:36:39;8.53;;;7.70;;
15938;SDS011;8068;51.322;9.450;2023-06-22T10:39:05;8.53;;;7.97;;
15938;SDS011;8068;51.322;9.450;2023-06-22T10:41:37;8.23;;;7.63;;
15938;SDS011;8068;51.322;9.450;2023-06-22T10:44:08;7.87;;;7.27;;
15938;SDS011;8068;51.322;9.450;2023-06-22T10:46:40;8.23;;;7.57;;
15938;SDS011;8068;51.322;9.450;2023-06-22T10:49:14;8.03;;;7.43;;
15938;SDS011;8068;51.322;9.450;2023-06-22T10:51:44;11.60;;;7.97;;
15938;SDS011;8068;51.322;9.450;2023-06-22T10:54:15;8.70;;;8.03;;
15938;SDS011;8068;51.322;9.450;2023-06-22T10:56:47;8.40;;;7.80;;
15938;SDS011;8068;51.322;9.450;2023-06-22T10:59:17;6.90;;;6.40;;
15938;SDS011;8068;51.322;9.450;2023-06-22T11:01:48;7.47;;;6.77;;
15938;SDS011;8068;51.322;9.450;2023-06-22T11:04:20;7.03;;;6.37;;
15938;SDS011;8068;51.322;9.450;2023-06-22T11:06:55;6.87;;;6.43;;
15938;SDS011;8068;51.322;9.450;2023-06-22T11:09:25;6.70;;;6.20;;
15938;SDS011;8068;51.322;9.450;2023-06-22T11:11:57;7.23;;;6.87;;
15938;SDS011;8068;51.322;9.450;2023-06-22T11:14:31;7.60;;;7.00;;
15938;SDS011;8068;51.322;9.450;2023-06-22T11:17:03;8.30;;;7.37;;
15938;SDS011;8068;51.322;9.450;2023-06-22T11:19:33;7.63;;;7.03;;
15938;SDS011;8068;51.322;9.450;2023-06-22T11:22:05;7.87;;;7.37;;
15938;SDS011;8068;51.322;9.450;2023-06-22T11:24:36;7.30;;;6.87;;
15938;SDS011;8068;51.322;9.450;2023-06-22T11:27:07;6.87;;;6.47;;
15938;SDS011;8068;51.322;9.450;2023-06-22T11:29:38;7.67;;;7.07;;
15938;SDS011;8068;51.322;9.450;2023-06-22T11:32:13;7.07;;;6.57;;
15938;SDS011;8068;51.322;9.450;2023-06-22T11:34:44;7.63;;;7.13;;
15938;SDS011;8068;51.322;9.450;2023-06-22T11:37:23;7.77;;;7.07;;
15938;SDS011;8068;51.322;9.450;2023-06-22T11:40:01;8.70;;;7.87;;
15938;SDS011;8068;51.322;9.450;2023-06-22T11:42:33;8.07;;;7.50;;
15938;SDS011;8068;51.322;9.450;2023-06-22T11:45:04;8.80;;;7.77;;
15938;SDS011;8068;51.322;9.450;2023-06-22T11:47:38;8.30;;;7.70;;
15938;SDS011;8068;51.322;9.450;2023-06-22T11:50:10;8.53;;;7.83;;
15938;SDS011;8068;51.322;9.450;2023-06-22T11:52:41;7.13;;;6.60;;
15938;SDS011;8068;51.322;9.450;2023-06-22T11:55:16;8.13;;;7.40;;
15938;SDS011;8068;51.322;9.450;2023-06-22T11:57:56;7.67;;;7.03;;
15938;SDS011;8068;51.322;9.450;2023-06-22T12:00:25;7.70;;;6.90;;
15938;SDS011;8068;51.322;9.450;2023-06-22T12:03:02;7.33;;;6.83;;
15938;SDS011;8068;51.322;9.450;2023-06-22T12:05:29;7.70;;;7.00;;
15938;SDS011;8068;51.322;9.450;2023-06-22T12:07:55;7.60;;;7.10;;
15938;SDS011;8068;51.322;9.450;2023-06-22T12:10:24;6.43;;;6.13;;
15938;SDS011;8068;51.322;9.450;2023-06-22T12:12:56;6.80;;;6.33;;
15938;SDS011;8068;51.322;9.450;2023-06-22T12:15:28;7.30;;;6.80;;
15938;SDS011;8068;51.322;9.450;2023-06-22T12:17:59;9.10;;;6.40;;
15938;SDS011;8068;51.322;9.450;2023-06-22T12:20:34;7.30;;;6.60;;
15938;SDS011;8068;51.322;9.450;2023-06-22T12:23:04;6.70;;;6.40;;
15938;SDS011;8068;51.322;9.450;2023-06-22T12:25:36;6.90;;;6.60;;
15938;SDS011;8068;51.322;9.450;2023-06-22T12:28:07;6.40;;;6.10;;
15938;SDS011;8068;51.322;9.450;2023-06-22T12:30:38;9.47;;;6.57;;
15938;SDS011;8068;51.322;9.450;2023-06-22T12:33:10;7.80;;;5.93;;
15938;SDS011;8068;51.322;9.450;2023-06-22T12:35:41;6.43;;;5.80;;
15938;SDS011;8068;51.322;9.450;2023-06-22T12:38:17;7.57;;;5.60;;
15938;SDS011;8068;51.322;9.450;2023-06-22T12:40:47;6.90;;;6.40;;
15938;SDS011;8068;51.322;9.450;2023-06-22T12:43:19;6.73;;;6.07;;
15938;SDS011;8068;51.322;9.450;2023-06-22T12:45:52;6.83;;;6.23;;
15938;SDS011;8068;51.322;9.450;2023-06-22T12:48:25;7.13;;;6.33;;
15938;SDS011;8068;51.322;9.450;2023-06-22T12:50:55;6.27;;;5.97;;
15938;SDS011;8068;51.322;9.450;2023-06-22T12:53:26;6.47;;;6.07;;
15938;SDS011;8068;51.322;9.450;2023-06-22T12:55:58;5.80;;;5.50;;
15938;SDS011;8068;51.322;9.450;2023-06-22T12:58:29;6.70;;;6.30;;
15938;SDS011;8068;51.322;9.450;2023-06-22T13:01:00;7.27;;;6.57;;
15938;SDS011;8068;51.322;9.450;2023-06-22T13:03:36;8.67;;;6.63;;
15938;SDS011;8068;51.322;9.450;2023-06-22T13:06:06;7.90;;;7.10;;
15938;SDS011;8068;51.322;9.450;2023-06-22T13:08:37;9.33;;;7.07;;
15938;SDS011;8068;51.322;9.450;2023-06-22T13:11:28;7.50;;;7.00;;
15938;SDS011;8068;51.322;9.450;2023-06-22T13:13:55;7.00;;;6.60;;
15938;SDS011;8068;51.322;9.450;2023-06-22T13:16:21;7.67;;;7.00;;
15938;SDS011;8068;51.322;9.450;2023-06-22T13:19:04;7.17;;;6.67;;
15938;SDS011;8068;51.322;9.450;2023-06-22T13:21:30;7.60;;;6.93;;
15938;SDS011;8068;51.322;9.450;2023-06-22T13:23:57;7.53;;;7.07;;
15938;SDS011;8068;51.322;9.450;2023-06-22T13:26:28;8.07;;;7.40;;
15938;SDS011;8068;51.322;9.450;2023-06-22T13:28:59;7.83;;;7.23;;
15938;SDS011;8068;51.322;9.450;2023-06-22T13:31:31;8.80;;;8.20;;
15938;SDS011;8068;51.322;9.450;2023-06-22T13:34:02;8.53;;;7.70;;
15938;SDS011;8068;51.322;9.450;2023-06-22T13:36:34;7.80;;;7.40;;
15938;SDS011;8068;51.322;9.450;2023-06-22T13:39:06;8.10;;;7.30;;
15938;SDS011;8068;51.322;9.450;2023-06-22T13:41:37;8.03;;;7.47;;
15938;SDS011;8068;51.322;9.450;2023-06-22T13:44:08;8.43;;;7.83;;
15938;SDS011;8068;51.322;9.450;2023-06-22T13:46:39;10.20;;;7.70;;
15938;SDS011;8068;51.322;9.450;2023-06-22T13:49:11;9.83;;;8.60;;
15938;SDS011;8068;51.322;9.450;2023-06-22T13:51:42;9.30;;;8.30;;
15938;SDS011;8068;51.322;9.450;2023-06-22T13:54:16;9.50;;;8.70;;
15938;SDS011;8068;51.322;9.450;2023-06-22T13:56:56;8.77;;;7.93;;
15938;SDS011;8068;51.322;9.450;2023-06-22T13:59:22;8.47;;;7.70;;
15938;SDS011;8068;51.322;9.450;2023-06-22T14:01:53;9.30;;;8.60;;
15938;SDS011;8068;51.322;9.450;2023-06-22T14:04:24;9.30;;;8.43;;
15938;SDS011;8068;51.322;9.450;2023-06-22T14:06:55;9.30;;;8.40;;
15938;SDS011;8068;51.322;9.450;2023-06-22T14:09:26;8.67;;;7.80;;
15938;SDS011;8068;51.322;9.450;2023-06-22T14:11:57;8.90;;;8.10;;
15938;SDS011;8068;51.322;9.450;2023-06-22T14:14:28;9.40;;;8.30;;
15938;SDS011;8068;51.322;9.450;2023-06-22T14:17:00;9.00;;;8.20;;
15938;SDS011;8068;51.322;9.450;2023-06-22T14:19:34;15.03;;;8.40;;
15938;SDS011;8068;51.322;9.450;2023-06-22T14:22:05;8.80;;;8.10;;
15938;SDS011;8068;51.322;9.450;2023-06-22T14:24:36;9.60;;;8.70;;
15938;SDS011;8068;51.322;9.450;2023-06-22T14:27:07;10.80;;;9.70;;
15938;SDS011;8068;51.322;9.450;2023-06-22T14:29:38;10.03;;;9.00;;
15938;SDS011;8068;51.322;9.450;2023-06-22T14:32:09;11.23;;;9.13;;
15938;SDS011;8068;51.322;9.450;2023-06-22T14:34:39;20.37;;;5.17;;
15938;SDS011;8068;51.322;9.450;2023-06-22T14:37:13;47.17;;;6.80;;
15938;SDS011;8068;51.322;9.450;2023-06-22T14:39:44;11.33;;;4.53;;
15938;SDS011;8068;51.322;9.450;2023-06-22T14:42:15;13.23;;;5.80;;
15938;SDS011;8068;51.322;9.450;2023-06-22T14:44:46;14.00;;;6.10;;
15938;SDS011;8068;51.322;9.450;2023-06-22T14:47:16;19.33;;;5.70;;
15938;SDS011;8068;51.322;9.450;2023-06-22T14:49:47;9.67;;;6.60;;
15938;SDS011;8068;51.322;9.450;2023-06-22T14:52:17;17.80;;;7.60;;
15938;SDS011;8068;51.322;9.450;2023-06-22T14:54:51;7.07;;;6.20;;
15938;SDS011;8068;51.322;9.450;2023-06-22T14:57:22;7.00;;;6.30;;
15938;SDS011;8068;51.322;9.450;2023-06-22T14:59:52;12.70;;;5.17;;
15938;SDS011;8068;51.322;9.450;2023-06-22T15:02:23;6.60;;;6.00;;
15938;SDS011;8068;51.322;9.450;2023-06-22T15:04:53;5.33;;;4.83;;
15938;SDS011;8068;51.322;9.450;2023-06-22T15:07:25;6.20;;;5.30;;
15938;SDS011;8068;51.322;9.450;2023-06-22T15:09:56;8.57;;;7.67;;